Flight Track Log - Related Links

Times and Time Zones

All times are in EDT time to prevent confusion due to time zone crossing. See the N1229C flight status page for this flight to view local times or setup timezone preferences in your user account.

Time Position Orientation Groundspeed Altitude Reporting Facility
EDT Latitude Longitude Course Direction KTS MPH feet Rate Location/Type
Sat 04:43:58 PM 55.5667 -133.0833 229° Southwest 100 115 500  Level Anchorage Center
Sat 04:44:58 PM 55.5500 -133.1167 270° West 110 127 2,100 1,600 Climbing Anchorage Center
Sat 04:45:58 PM 55.5500 -133.1500 49° Northeast 140 161 3,700 1,636 Climbing Anchorage Center
Sat 04:46:59 PM 55.5667 -133.1167 66° East 130 150 5,400 1,438 Climbing Anchorage Center
Sat 04:47:59 PM 55.5833 -133.0500 48° Northeast 160 184 6,600 750 Climbing Anchorage Center
Sat 04:48:59 PM 55.6167 -132.9833 29° Northeast 180 207 6,900 149 Climbing Anchorage Center
Sat 04:50:00 PM 55.6667 -132.9333 66° East 170 196 6,900 50 Level Anchorage Center
Sat 04:51:00 PM 55.6833 -132.8667 90° East 160 184 7,000 50 Climbing Anchorage Center
Sat 04:52:00 PM 55.6833 -132.7833 109° East 160 184 7,000 -50 Level Anchorage Center
Sat 04:53:01 PM 55.6667 -132.7000 90° East 160 184 6,900  Descending Anchorage Center
Sat 04:54:02 PM 55.6667 -132.6333 109° East 160 184 7,000 50 Climbing Anchorage Center
Sat 04:55:02 PM 55.6500 -132.5500 90° East 160 184 7,000  Level Anchorage Center
Sat 04:56:02 PM 55.6500 -132.4667 90° East 160 184 7,000 -50 Level Anchorage Center
Sat 04:57:03 PM 55.6500 -132.3833 114° Southeast 160 184 6,900 -50 Descending Anchorage Center
Sat 04:58:03 PM 55.6333 -132.3167 90° East 160 184 6,900 50 Level Anchorage Center
Sat 04:59:03 PM 55.6333 -132.2333 109° East 160 184 7,000 -50 Climbing Anchorage Center
Sat 05:00:04 PM 55.6167 -132.1500 151° Southeast 160 184 6,800 -298 Descending Anchorage Center
Sat 05:01:04 PM 55.5833 -132.1167 140° Southeast 150 173 6,400 -550 Descending Anchorage Center
Sat 05:02:04 PM 55.5500 -132.0667 120° Southeast 140 161 5,700 -694 Descending Anchorage Center
Sat 05:03:05 PM 55.5333 -132.0167 140° Southeast 140 161 5,000 -694 Descending Anchorage Center
Sat 05:04:05 PM 55.5000 -131.9667 131° Southeast 140 161 4,300 -766 Descending Anchorage Center
Sat 05:05:26 PM 55.4667 -131.9000 140° Southeast 140 161 3,200 -809 Descending Anchorage Center
Sat 05:06:26 PM 55.4333 -131.8500 131° Southeast 130 150 2,400 -700 Descending Anchorage Center
Sat 05:07:26 PM 55.4167 -131.8167 140° Southeast 130 150 1,800 -694 Descending Anchorage Center
Sat 05:08:27 PM 55.3833 -131.7667 131° Southeast 110 127 1,000 -689 Descending Anchorage Center
Sat 05:09:28 PM 55.3667 -131.7333 135° Southeast 100 115 400 -590 Descending Anchorage Center
Sat 05:17:32 PM 55.1515 -131.3583 316° Northwest  Level Estimated
Sat 05:18:32 PM 55.3500 -131.7000 303° West  Level FlightAware Approximate
Sat 05:19:32 PM 55.3702 -131.7557 123° Southeast  Level Estimated
Sat 05:20:32 PM 55.3500 -131.7000 303° West  Level FlightAware Approximate
Sat 05:21:32 PM 55.3702 -131.7557 123° Southeast  Level Estimated
Sat 05:22:32 PM 55.3500 -131.7000 123° Southeast  Level FlightAware Approximate

Login

Don't have an account? Register now (free) for customized features, flight alerts, and more!